sensor_id;sensor_type;location;lat;lon;timestamp;pressure;altitude;pressure_sealevel;temperature;humidity
64739;BME280;51175;51.186;0.276;2023-03-14T00:00:00;98407.41;;;15.60;69.03
64739;BME280;51175;51.186;0.276;2023-03-14T00:00:30;98402.84;;;15.60;69.21
64739;BME280;51175;51.186;0.276;2023-03-14T00:01:07;98397.88;;;15.59;69.15
64739;BME280;51175;51.186;0.276;2023-03-14T00:01:37;98403.19;;;15.59;69.11
64739;BME280;51175;51.186;0.276;2023-03-14T00:02:08;98408.53;;;15.59;69.23
64739;BME280;51175;51.186;0.276;2023-03-14T00:02:38;98411.19;;;15.59;69.09
64739;BME280;51175;51.186;0.276;2023-03-14T00:03:08;98404.31;;;15.58;69.17
64739;BME280;51175;51.186;0.276;2023-03-14T00:03:39;98404.72;;;15.60;69.17
64739;BME280;51175;51.186;0.276;2023-03-14T00:04:09;98403.53;;;15.57;69.34
64739;BME280;51175;51.186;0.276;2023-03-14T00:04:39;98404.31;;;15.58;68.99
64739;BME280;51175;51.186;0.276;2023-03-14T00:05:09;98404.31;;;15.58;69.03
64739;BME280;51175;51.186;0.276;2023-03-14T00:05:40;98403.53;;;15.57;68.90
64739;BME280;51175;51.186;0.276;2023-03-14T00:06:10;98405.44;;;15.57;69.13
64739;BME280;51175;51.186;0.276;2023-03-14T00:06:41;98403.53;;;15.57;69.23
64739;BME280;51175;51.186;0.276;2023-03-14T00:07:11;98400.88;;;15.57;69.12
64739;BME280;51175;51.186;0.276;2023-03-14T00:07:41;98408.09;;;15.57;69.38
64739;BME280;51175;51.186;0.276;2023-03-14T00:08:12;98400.88;;;15.57;69.04
64739;BME280;51175;51.186;0.276;2023-03-14T00:08:43;98400.09;;;15.57;68.92
64739;BME280;51175;51.186;0.276;2023-03-14T00:09:13;98404.66;;;15.56;69.29
64739;BME280;51175;51.186;0.276;2023-03-14T00:09:43;98406.22;;;15.57;69.12
64739;BME280;51175;51.186;0.276;2023-03-14T00:10:14;98399.31;;;15.56;69.05
64739;BME280;51175;51.186;0.276;2023-03-14T00:10:44;98401.22;;;15.56;69.20
64739;BME280;51175;51.186;0.276;2023-03-14T00:11:16;98399.31;;;15.56;69.01
64739;BME280;51175;51.186;0.276;2023-03-14T00:11:46;98393.25;;;15.56;69.25
64739;BME280;51175;51.186;0.276;2023-03-14T00:12:16;98404.66;;;15.56;69.05
64739;BME280;51175;51.186;0.276;2023-03-14T00:12:46;98403.09;;;15.55;69.25
64739;BME280;51175;51.186;0.276;2023-03-14T00:13:17;98398.56;;;15.56;69.28
64739;BME280;51175;51.186;0.276;2023-03-14T00:13:48;98403.09;;;15.55;69.26
64739;BME280;51175;51.186;0.276;2023-03-14T00:14:18;98401.22;;;15.56;69.04
64739;BME280;51175;51.186;0.276;2023-03-14T00:14:48;98403.88;;;15.56;69.36
64739;BME280;51175;51.186;0.276;2023-03-14T00:15:19;98395.13;;;15.55;69.15
64739;BME280;51175;51.186;0.276;2023-03-14T00:15:49;98398.56;;;15.56;69.03
64739;BME280;51175;51.186;0.276;2023-03-14T00:16:19;98406.56;;;15.56;68.96
64739;BME280;51175;51.186;0.276;2023-03-14T00:16:50;98403.09;;;15.55;69.11
64739;BME280;51175;51.186;0.276;2023-03-14T00:17:20;98397.78;;;15.55;68.98
64739;BME280;51175;51.186;0.276;2023-03-14T00:17:52;98405.00;;;15.55;68.95
64739;BME280;51175;51.186;0.276;2023-03-14T00:18:23;98405.00;;;15.55;69.09
64739;BME280;51175;51.186;0.276;2023-03-14T00:18:54;98401.56;;;15.54;69.06
64739;BME280;51175;51.186;0.276;2023-03-14T00:19:24;98399.66;;;15.55;69.01
64739;BME280;51175;51.186;0.276;2023-03-14T00:19:54;98402.31;;;15.55;69.17
64739;BME280;51175;51.186;0.276;2023-03-14T00:20:24;98403.44;;;15.54;69.03
64739;BME280;51175;51.186;0.276;2023-03-14T00:20:57;98398.13;;;15.54;68.91
64739;BME280;51175;51.186;0.276;2023-03-14T00:21:27;98401.56;;;15.54;69.13
64739;BME280;51175;51.186;0.276;2023-03-14T00:21:57;98388.28;;;15.54;69.15
64739;BME280;51175;51.186;0.276;2023-03-14T00:22:27;98403.44;;;15.54;69.37
64739;BME280;51175;51.186;0.276;2023-03-14T00:22:58;98402.31;;;15.55;69.22
64739;BME280;51175;51.186;0.276;2023-03-14T00:23:28;98397.78;;;15.55;69.31
64739;BME280;51175;51.186;0.276;2023-03-14T00:23:59;98394.69;;;15.53;69.04
64739;BME280;51175;51.186;0.276;2023-03-14T00:24:29;98404.22;;;15.54;69.14
64739;BME280;51175;51.186;0.276;2023-03-14T00:24:59;98398.91;;;15.54;69.03
64739;BME280;51175;51.186;0.276;2023-03-14T00:25:30;98404.22;;;15.54;69.03
64739;BME280;51175;51.186;0.276;2023-03-14T00:26:18;98403.44;;;15.54;69.03
64739;BME280;51175;51.186;0.276;2023-03-14T00:26:49;98396.59;;;15.52;69.16
64739;BME280;51175;51.186;0.276;2023-03-14T00:27:19;98394.69;;;15.53;69.04
64739;BME280;51175;51.186;0.276;2023-03-14T00:27:50;98405.34;;;15.53;69.32
64739;BME280;51175;51.186;0.276;2023-03-14T00:28:20;98399.25;;;15.52;69.19
64739;BME280;51175;51.186;0.276;2023-03-14T00:28:51;98393.94;;;15.52;69.04
64739;BME280;51175;51.186;0.276;2023-03-14T00:29:21;98398.47;;;15.52;69.21
64739;BME280;51175;51.186;0.276;2023-03-14T00:29:52;98393.16;;;15.52;69.12
64739;BME280;51175;51.186;0.276;2023-03-14T00:30:22;98395.81;;;15.52;69.06
64739;BME280;51175;51.186;0.276;2023-03-14T00:30:52;98387.84;;;15.52;69.19
64739;BME280;51175;51.186;0.276;2023-03-14T00:31:22;98389.72;;;15.51;69.09
64739;BME280;51175;51.186;0.276;2023-03-14T00:31:53;98395.03;;;15.51;69.01
64739;BME280;51175;51.186;0.276;2023-03-14T00:32:23;98395.38;;;15.50;69.36
64739;BME280;51175;51.186;0.276;2023-03-14T00:32:53;98388.97;;;15.51;69.09
64739;BME280;51175;51.186;0.276;2023-03-14T00:33:23;98393.50;;;15.50;69.30
64739;BME280;51175;51.186;0.276;2023-03-14T00:33:54;98391.63;;;15.51;69.41
64739;BME280;51175;51.186;0.276;2023-03-14T00:34:28;98388.97;;;15.51;69.31
64739;BME280;51175;51.186;0.276;2023-03-14T00:34:58;98398.81;;;15.50;69.20
64739;BME280;51175;51.186;0.276;2023-03-14T00:35:29;98393.50;;;15.50;69.35
64739;BME280;51175;51.186;0.276;2023-03-14T00:36:00;98388.97;;;15.51;69.32
64739;BME280;51175;51.186;0.276;2023-03-14T00:36:30;98387.41;;;15.50;69.19
64739;BME280;51175;51.186;0.276;2023-03-14T00:37:00;98392.72;;;15.50;69.21
64739;BME280;51175;51.186;0.276;2023-03-14T00:37:31;98394.28;;;15.51;69.13
64739;BME280;51175;51.186;0.276;2023-03-14T00:38:01;98398.81;;;15.50;69.41
64739;BME280;51175;51.186;0.276;2023-03-14T00:38:31;98388.97;;;15.51;69.30
64739;BME280;51175;51.186;0.276;2023-03-14T00:39:02;98399.94;;;15.49;69.25
64739;BME280;51175;51.186;0.276;2023-03-14T00:39:33;98393.84;;;15.49;69.20
64739;BME280;51175;51.186;0.276;2023-03-14T00:40:03;98399.16;;;15.49;69.21
64739;BME280;51175;51.186;0.276;2023-03-14T00:40:38;98391.97;;;15.49;69.22
64739;BME280;51175;51.186;0.276;2023-03-14T00:41:10;98391.19;;;15.49;69.13
64739;BME280;51175;51.186;0.276;2023-03-14T00:41:40;98391.19;;;15.49;69.04
64739;BME280;51175;51.186;0.276;2023-03-14T00:42:11;98396.50;;;15.49;69.41
64739;BME280;51175;51.186;0.276;2023-03-14T00:42:41;98400.28;;;15.48;69.14
64739;BME280;51175;51.186;0.276;2023-03-14T00:43:11;98390.41;;;15.48;69.39
64739;BME280;51175;51.186;0.276;2023-03-14T00:43:41;98393.84;;;15.49;69.10
64739;BME280;51175;51.186;0.276;2023-03-14T00:44:12;98393.06;;;15.48;69.43
64739;BME280;51175;51.186;0.276;2023-03-14T00:44:42;98390.41;;;15.48;69.13
64739;BME280;51175;51.186;0.276;2023-03-14T00:45:12;98392.31;;;15.48;69.06
64739;BME280;51175;51.186;0.276;2023-03-14T00:45:42;98389.66;;;15.48;69.16
64739;BME280;51175;51.186;0.276;2023-03-14T00:46:13;98389.66;;;15.48;69.35
64739;BME280;51175;51.186;0.276;2023-03-14T00:46:43;98392.31;;;15.48;69.43
64739;BME280;51175;51.186;0.276;2023-03-14T00:47:13;98381.66;;;15.48;69.30
64739;BME280;51175;51.186;0.276;2023-03-14T00:47:43;98385.44;;;15.47;69.05
64739;BME280;51175;51.186;0.276;2023-03-14T00:48:15;98390.75;;;15.47;69.34
64739;BME280;51175;51.186;0.276;2023-03-14T00:48:46;98388.88;;;15.47;69.42
64739;BME280;51175;51.186;0.276;2023-03-14T00:49:16;98384.34;;;15.48;69.32
64739;BME280;51175;51.186;0.276;2023-03-14T00:49:46;98380.88;;;15.47;69.08
64739;BME280;51175;51.186;0.276;2023-03-14T00:50:17;98393.41;;;15.47;69.09
64739;BME280;51175;51.186;0.276;2023-03-14T00:50:47;98389.66;;;15.48;69.28
64739;BME280;51175;51.186;0.276;2023-03-14T00:51:18;98384.69;;;15.46;69.15
64739;BME280;51175;51.186;0.276;2023-03-14T00:51:48;98391.53;;;15.47;69.30
64739;BME280;51175;51.186;0.276;2023-03-14T00:52:18;98393.41;;;15.47;69.41
64739;BME280;51175;51.186;0.276;2023-03-14T00:52:48;98388.88;;;15.47;69.16
64739;BME280;51175;51.186;0.276;2023-03-14T00:53:19;98391.88;;;15.46;69.09
64739;BME280;51175;51.186;0.276;2023-03-14T00:53:49;98388.09;;;15.47;69.17
64739;BME280;51175;51.186;0.276;2023-03-14T00:54:20;98392.66;;;15.46;69.10
64739;BME280;51175;51.186;0.276;2023-03-14T00:54:50;98386.56;;;15.46;69.21
64739;BME280;51175;51.186;0.276;2023-03-14T00:55:21;98388.44;;;15.45;69.25
64739;BME280;51175;51.186;0.276;2023-03-14T00:55:51;98393.75;;;15.45;69.33
64739;BME280;51175;51.186;0.276;2023-03-14T00:56:21;98385.78;;;15.45;69.13
64739;BME280;51175;51.186;0.276;2023-03-14T00:56:52;98385.78;;;15.45;69.17
64739;BME280;51175;51.186;0.276;2023-03-14T00:57:22;98397.19;;;15.46;69.45
64739;BME280;51175;51.186;0.276;2023-03-14T00:57:52;98391.09;;;15.45;69.34
64739;BME280;51175;51.186;0.276;2023-03-14T00:58:23;98392.22;;;15.44;69.17
64739;BME280;51175;51.186;0.276;2023-03-14T00:58:54;98389.22;;;15.46;69.40
64739;BME280;51175;51.186;0.276;2023-03-14T00:59:25;98393.00;;;15.45;69.20
64739;BME280;51175;51.186;0.276;2023-03-14T00:59:55;98390.34;;;15.45;69.37
64739;BME280;51175;51.186;0.276;2023-03-14T01:00:25;98389.56;;;15.44;69.19
64739;BME280;51175;51.186;0.276;2023-03-14T01:00:55;98393.00;;;15.45;69.04
64739;BME280;51175;51.186;0.276;2023-03-14T01:01:26;98388.78;;;15.44;69.25
64739;BME280;51175;51.186;0.276;2023-03-14T01:01:56;98392.22;;;15.44;69.46
64739;BME280;51175;51.186;0.276;2023-03-14T01:02:26;98391.44;;;15.44;69.34
64739;BME280;51175;51.186;0.276;2023-03-14T01:02:56;98391.44;;;15.44;69.45
64739;BME280;51175;51.186;0.276;2023-03-14T01:03:27;98397.53;;;15.44;69.05
64739;BME280;51175;51.186;0.276;2023-03-14T01:03:57;98393.34;;;15.43;69.34
64739;BME280;51175;51.186;0.276;2023-03-14T01:04:27;98390.69;;;15.43;69.40
64739;BME280;51175;51.186;0.276;2023-03-14T01:04:57;98392.56;;;15.43;69.32
64739;BME280;51175;51.186;0.276;2023-03-14T01:05:28;98390.69;;;15.43;69.38
64739;BME280;51175;51.186;0.276;2023-03-14T01:06:08;98389.13;;;15.42;69.22
64739;BME280;51175;51.186;0.276;2023-03-14T01:06:39;98384.59;;;15.43;69.33
64739;BME280;51175;51.186;0.276;2023-03-14T01:07:09;98387.25;;;15.43;69.27
64739;BME280;51175;51.186;0.276;2023-03-14T01:07:39;98384.59;;;15.43;69.19
64739;BME280;51175;51.186;0.276;2023-03-14T01:08:09;98389.91;;;15.43;69.20
64739;BME280;51175;51.186;0.276;2023-03-14T01:08:42;98387.25;;;15.43;69.15
64739;BME280;51175;51.186;0.276;2023-03-14T01:09:12;98385.72;;;15.42;69.14
64739;BME280;51175;51.186;0.276;2023-03-14T01:09:42;98380.38;;;15.42;69.30
64739;BME280;51175;51.186;0.276;2023-03-14T01:10:13;98385.72;;;15.42;69.34
64739;BME280;51175;51.186;0.276;2023-03-14T01:10:43;98385.72;;;15.42;69.35
64739;BME280;51175;51.186;0.276;2023-03-14T01:11:15;98391.03;;;15.42;69.31
64739;BME280;51175;51.186;0.276;2023-03-14T01:11:46;98392.91;;;15.41;69.35
64739;BME280;51175;51.186;0.276;2023-03-14T01:12:17;98391.78;;;15.42;69.20
64739;BME280;51175;51.186;0.276;2023-03-14T01:12:47;98389.47;;;15.41;69.32
64739;BME280;51175;51.186;0.276;2023-03-14T01:13:17;98387.59;;;15.41;69.25
64739;BME280;51175;51.186;0.276;2023-03-14T01:13:47;98390.25;;;15.41;69.04
64739;BME280;51175;51.186;0.276;2023-03-14T01:14:18;98379.59;;;15.41;69.48
64739;BME280;51175;51.186;0.276;2023-03-14T01:14:48;98384.94;;;15.41;69.47
64739;BME280;51175;51.186;0.276;2023-03-14T01:15:18;98382.28;;;15.41;69.21
64739;BME280;51175;51.186;0.276;2023-03-14T01:15:48;98386.47;;;15.42;69.25
64739;BME280;51175;51.186;0.276;2023-03-14T01:16:20;98384.94;;;15.41;69.38
64739;BME280;51175;51.186;0.276;2023-03-14T01:16:50;98385.72;;;15.42;69.31
64739;BME280;51175;51.186;0.276;2023-03-14T01:17:21;98392.91;;;15.41;69.04
64739;BME280;51175;51.186;0.276;2023-03-14T01:17:52;98384.16;;;15.41;69.34
64739;BME280;51175;51.186;0.276;2023-03-14T01:18:22;98387.59;;;15.41;69.32
64739;BME280;51175;51.186;0.276;2023-03-14T01:18:53;98384.94;;;15.41;69.22
64739;BME280;51175;51.186;0.276;2023-03-14T01:19:23;98389.47;;;15.41;69.51
64739;BME280;51175;51.186;0.276;2023-03-14T01:19:53;98381.47;;;15.41;69.22
64739;BME280;51175;51.186;0.276;2023-03-14T01:20:23;98392.13;;;15.41;69.30
64739;BME280;51175;51.186;0.276;2023-03-14T01:20:54;98391.38;;;15.40;69.40
64739;BME280;51175;51.186;0.276;2023-03-14T01:21:25;98391.38;;;15.40;69.19
64739;BME280;51175;51.186;0.276;2023-03-14T01:21:55;98382.59;;;15.39;69.33
64739;BME280;51175;51.186;0.276;2023-03-14T01:22:26;98382.59;;;15.39;69.21
64739;BME280;51175;51.186;0.276;2023-03-14T01:22:56;98391.38;;;15.40;69.05
64739;BME280;51175;51.186;0.276;2023-03-14T01:23:26;98386.81;;;15.41;69.47
64739;BME280;51175;51.186;0.276;2023-03-14T01:23:57;98390.59;;;15.39;69.38
64739;BME280;51175;51.186;0.276;2023-03-14T01:24:28;98387.16;;;15.39;69.27
64739;BME280;51175;51.186;0.276;2023-03-14T01:24:58;98390.59;;;15.39;69.39
64739;BME280;51175;51.186;0.276;2023-03-14T01:25:28;98390.59;;;15.39;69.34
64739;BME280;51175;51.186;0.276;2023-03-14T01:26:00;98387.16;;;15.39;69.42
64739;BME280;51175;51.186;0.276;2023-03-14T01:26:31;98389.81;;;15.39;69.55
64739;BME280;51175;51.186;0.276;2023-03-14T01:27:02;98389.81;;;15.39;69.39
64739;BME280;51175;51.186;0.276;2023-03-14T01:27:32;98397.03;;;15.38;69.41
64739;BME280;51175;51.186;0.276;2023-03-14T01:28:03;98389.06;;;15.38;69.16
64739;BME280;51175;51.186;0.276;2023-03-14T01:28:33;98388.28;;;15.38;69.34
64739;BME280;51175;51.186;0.276;2023-03-14T01:29:03;98390.16;;;15.37;69.21
64739;BME280;51175;51.186;0.276;2023-03-14T01:29:34;98400.44;;;15.39;69.26
64739;BME280;51175;51.186;0.276;2023-03-14T01:30:04;98390.94;;;15.38;69.47
64739;BME280;51175;51.186;0.276;2023-03-14T01:30:35;98387.50;;;15.37;69.27
64739;BME280;51175;51.186;0.276;2023-03-14T01:31:06;98384.84;;;15.37;69.45
64739;BME280;51175;51.186;0.276;2023-03-14T01:31:36;98384.06;;;15.37;69.55
64739;BME280;51175;51.186;0.276;2023-03-14T01:32:07;98395.47;;;15.37;69.21
64739;BME280;51175;51.186;0.276;2023-03-14T01:32:37;98387.50;;;15.37;69.36
64739;BME280;51175;51.186;0.276;2023-03-14T01:33:07;98392.81;;;15.37;69.08
64739;BME280;51175;51.186;0.276;2023-03-14T01:33:38;98393.59;;;15.38;69.43
64739;BME280;51175;51.186;0.276;2023-03-14T01:34:08;98390.94;;;15.38;69.32
64739;BME280;51175;51.186;0.276;2023-03-14T01:34:39;98396.59;;;15.36;69.22
64739;BME280;51175;51.186;0.276;2023-03-14T01:35:09;98392.81;;;15.37;69.37
64739;BME280;51175;51.186;0.276;2023-03-14T01:35:39;98395.47;;;15.37;69.45
64739;BME280;51175;51.186;0.276;2023-03-14T01:36:10;98397.38;;;15.37;69.38
64739;BME280;51175;51.186;0.276;2023-03-14T01:36:40;98389.75;;;15.35;69.56
64739;BME280;51175;51.186;0.276;2023-03-14T01:37:10;98399.25;;;15.36;69.28
64739;BME280;51175;51.186;0.276;2023-03-14T01:37:41;98395.47;;;15.37;69.32
64739;BME280;51175;51.186;0.276;2023-03-14T01:38:12;98396.59;;;15.36;69.30
64739;BME280;51175;51.186;0.276;2023-03-14T01:38:42;98388.97;;;15.35;69.30
64739;BME280;51175;51.186;0.276;2023-03-14T01:39:12;98392.41;;;15.35;69.43
64739;BME280;51175;51.186;0.276;2023-03-14T01:39:43;98391.28;;;15.36;69.38
64739;BME280;51175;51.186;0.276;2023-03-14T01:40:13;98399.59;;;15.35;69.30
64739;BME280;51175;51.186;0.276;2023-03-14T01:40:46;98399.25;;;15.36;69.41
64739;BME280;51175;51.186;0.276;2023-03-14T01:41:18;98395.06;;;15.35;69.38
64739;BME280;51175;51.186;0.276;2023-03-14T01:41:49;98396.16;;;15.34;69.16
64739;BME280;51175;51.186;0.276;2023-03-14T01:42:19;98398.47;;;15.36;69.33
64739;BME280;51175;51.186;0.276;2023-03-14T01:43:05;98399.59;;;15.35;69.10
64739;BME280;51175;51.186;0.276;2023-03-14T01:43:35;98402.25;;;15.35;69.54
64739;BME280;51175;51.186;0.276;2023-03-14T01:44:09;98395.41;;;15.34;69.40
64739;BME280;51175;51.186;0.276;2023-03-14T01:44:46;98396.16;;;15.34;69.49
64739;BME280;51175;51.186;0.276;2023-03-14T01:46:37;98401.81;;;15.33;69.36
64739;BME280;51175;51.186;0.276;2023-03-14T01:47:07;98399.94;;;15.33;69.37
64739;BME280;51175;51.186;0.276;2023-03-14T01:47:38;98405.25;;;15.33;69.17
64739;BME280;51175;51.186;0.276;2023-03-14T01:48:09;98407.13;;;15.33;69.41
64739;BME280;51175;51.186;0.276;2023-03-14T01:48:43;98399.16;;;15.33;69.50
64739;BME280;51175;51.186;0.276;2023-03-14T01:49:31;98410.56;;;15.33;69.33
64739;BME280;51175;51.186;0.276;2023-03-14T01:50:09;98407.13;;;15.33;69.51
64739;BME280;51175;51.186;0.276;2023-03-14T01:50:41;98404.47;;;15.33;69.36
64739;BME280;51175;51.186;0.276;2023-03-14T01:52:12;98402.94;;;15.32;69.56
64739;BME280;51175;51.186;0.276;2023-03-14T01:52:47;98406.34;;;15.32;69.44
64739;BME280;51175;51.186;0.276;2023-03-14T01:53:19;98405.59;;;15.32;69.33
64739;BME280;51175;51.186;0.276;2023-03-14T01:53:51;98408.25;;;15.32;69.26
64739;BME280;51175;51.186;0.276;2023-03-14T01:55:12;98420.00;;;15.31;69.35
64739;BME280;51175;51.186;0.276;2023-03-14T01:55:44;98415.47;;;15.31;69.33
64739;BME280;51175;51.186;0.276;2023-03-14T01:56:14;98404.81;;;15.31;69.48
64739;BME280;51175;51.186;0.276;2023-03-14T01:56:48;98412.81;;;15.31;69.43
64739;BME280;51175;51.186;0.276;2023-03-14T01:57:23;98421.91;;;15.30;69.39
64739;BME280;51175;51.186;0.276;2023-03-14T01:57:59;98422.66;;;15.31;69.35
64739;BME280;51175;51.186;0.276;2023-03-14T01:58:32;98419.25;;;15.30;69.41
64739;BME280;51175;51.186;0.276;2023-03-14T01:59:04;98421.91;;;15.30;69.43
64739;BME280;51175;51.186;0.276;2023-03-14T01:59:36;98431.41;;;15.31;69.55
64739;BME280;51175;51.186;0.276;2023-03-14T02:00:08;98431.75;;;15.30;69.40
64739;BME280;51175;51.186;0.276;2023-03-14T02:00:43;98429.88;;;15.30;69.24
64739;BME280;51175;51.186;0.276;2023-03-14T02:01:13;98432.53;;;15.30;69.63
64739;BME280;51175;51.186;0.276;2023-03-14T02:01:46;98435.19;;;15.30;69.49
64739;BME280;51175;51.186;0.276;2023-03-14T02:02:17;98431.75;;;15.30;69.49
64739;BME280;51175;51.186;0.276;2023-03-14T02:02:49;98434.41;;;15.30;69.35
64739;BME280;51175;51.186;0.276;2023-03-14T02:03:20;98435.19;;;15.30;69.53
64739;BME280;51175;51.186;0.276;2023-03-14T02:03:55;98438.94;;;15.29;69.49
64739;BME280;51175;51.186;0.276;2023-03-14T02:04:27;98444.28;;;15.29;69.45
64739;BME280;51175;51.186;0.276;2023-03-14T02:04:58;98467.44;;;15.29;69.32
64739;BME280;51175;51.186;0.276;2023-03-14T02:05:30;98506.56;;;15.28;69.38
64739;BME280;51175;51.186;0.276;2023-03-14T02:06:04;98504.69;;;15.29;69.62
64739;BME280;51175;51.186;0.276;2023-03-14T02:06:50;98517.97;;;15.29;69.32
64739;BME280;51175;51.186;0.276;2023-03-14T02:07:26;98522.50;;;15.28;69.53
64739;BME280;51175;51.186;0.276;2023-03-14T02:08:01;98527.84;;;15.28;69.30
64739;BME280;51175;51.186;0.276;2023-03-14T02:08:31;98535.03;;;15.27;69.35
64739;BME280;51175;51.186;0.276;2023-03-14T02:09:03;98540.34;;;15.27;69.22
64739;BME280;51175;51.186;0.276;2023-03-14T02:09:34;98545.66;;;15.27;69.34
64739;BME280;51175;51.186;0.276;2023-03-14T02:10:04;98545.66;;;15.27;69.32
64739;BME280;51175;51.186;0.276;2023-03-14T02:10:37;98547.56;;;15.27;69.45
64739;BME280;51175;51.186;0.276;2023-03-14T02:11:08;98557.41;;;15.26;69.32
64739;BME280;51175;51.186;0.276;2023-03-14T02:11:38;98548.66;;;15.26;69.39
64739;BME280;51175;51.186;0.276;2023-03-14T02:12:09;98555.88;;;15.25;69.35
64739;BME280;51175;51.186;0.276;2023-03-14T02:12:41;98556.63;;;15.26;69.38
64739;BME280;51175;51.186;0.276;2023-03-14T02:13:11;98560.41;;;15.25;69.20
64739;BME280;51175;51.186;0.276;2023-03-14T02:13:42;98567.28;;;15.26;69.16
64739;BME280;51175;51.186;0.276;2023-03-14T02:14:15;98561.53;;;15.24;69.01
64739;BME280;51175;51.186;0.276;2023-03-14T02:14:48;98571.06;;;15.25;69.15
64739;BME280;51175;51.186;0.276;2023-03-14T02:15:18;98567.94;;;15.23;69.31
64739;BME280;51175;51.186;0.276;2023-03-14T02:15:49;98578.59;;;15.23;69.05
64739;BME280;51175;51.186;0.276;2023-03-14T02:16:20;98575.19;;;15.22;69.04
64739;BME280;51175;51.186;0.276;2023-03-14T02:16:50;98566.41;;;15.22;69.35
64739;BME280;51175;51.186;0.276;2023-03-14T02:17:21;98575.94;;;15.23;69.19
64739;BME280;51175;51.186;0.276;2023-03-14T02:17:52;98582.38;;;15.22;69.26
64739;BME280;51175;51.186;0.276;2023-03-14T02:18:23;98582.38;;;15.22;69.07
64739;BME280;51175;51.186;0.276;2023-03-14T02:18:53;98588.81;;;15.21;68.92
64739;BME280;51175;51.186;0.276;2023-03-14T02:21:05;98603.97;;;15.20;68.89
64739;BME280;51175;51.186;0.276;2023-03-14T02:22:09;98605.84;;;15.20;69.02
64739;BME280;51175;51.186;0.276;2023-03-14T02:22:40;98610.41;;;15.19;68.87
64739;BME280;51175;51.186;0.276;2023-03-14T02:23:12;98608.84;;;15.18;68.78
64739;BME280;51175;51.186;0.276;2023-03-14T02:23:50;98613.06;;;15.19;68.85
64739;BME280;51175;51.186;0.276;2023-03-14T02:24:27;98609.63;;;15.19;68.82
64739;BME280;51175;51.186;0.276;2023-03-14T02:25:04;98609.19;;;15.17;68.77
64739;BME280;51175;51.186;0.276;2023-03-14T02:26:25;98618.72;;;15.18;68.93
64739;BME280;51175;51.186;0.276;2023-03-14T02:27:34;98630.78;;;15.15;68.81
64739;BME280;51175;51.186;0.276;2023-03-14T02:28:04;98628.13;;;15.15;68.85
64739;BME280;51175;51.186;0.276;2023-03-14T02:28:34;98638.78;;;15.15;68.80
64739;BME280;51175;51.186;0.276;2023-03-14T02:29:04;98638.78;;;15.15;68.91
64739;BME280;51175;51.186;0.276;2023-03-14T02:29:36;98638.78;;;15.15;68.83
64739;BME280;51175;51.186;0.276;2023-03-14T02:30:09;98638.00;;;15.14;68.92
64739;BME280;51175;51.186;0.276;2023-03-14T02:30:40;98643.34;;;15.14;68.73
64739;BME280;51175;51.186;0.276;2023-03-14T02:31:10;98632.69;;;15.14;68.89
64739;BME280;51175;51.186;0.276;2023-03-14T02:31:41;98643.34;;;15.14;68.62
64739;BME280;51175;51.186;0.276;2023-03-14T02:32:11;98649.75;;;15.13;68.85
64739;BME280;51175;51.186;0.276;2023-03-14T02:32:43;98644.41;;;15.13;68.74
64739;BME280;51175;51.186;0.276;2023-03-14T02:33:16;98645.53;;;15.12;68.72
64739;BME280;51175;51.186;0.276;2023-03-14T02:33:46;98634.91;;;15.12;68.88
64739;BME280;51175;51.186;0.276;2023-03-14T02:34:17;98654.31;;;15.13;68.93
64739;BME280;51175;51.186;0.276;2023-03-14T02:34:48;98652.72;;;15.12;68.71
64739;BME280;51175;51.186;0.276;2023-03-14T02:35:23;98644.75;;;15.12;68.97
64739;BME280;51175;51.186;0.276;2023-03-14T02:36:00;98652.72;;;15.12;68.77
64739;BME280;51175;51.186;0.276;2023-03-14T02:36:31;98651.97;;;15.11;68.70
64739;BME280;51175;51.186;0.276;2023-03-14T02:37:02;98653.06;;;15.10;68.75
64739;BME280;51175;51.186;0.276;2023-03-14T02:37:38;98658.38;;;15.10;68.61
64739;BME280;51175;51.186;0.276;2023-03-14T02:38:21;98663.72;;;15.10;68.88
64739;BME280;51175;51.186;0.276;2023-03-14T02:39:27;98654.63;;;15.11;68.88
64739;BME280;51175;51.186;0.276;2023-03-14T02:39:50;98665.59;;;15.10;68.72
64739;BME280;51175;51.186;0.276;2023-03-14T02:40:21;98664.81;;;15.09;68.95
64739;BME280;51175;51.186;0.276;2023-03-14T02:40:51;98668.25;;;15.10;68.51
64739;BME280;51175;51.186;0.276;2023-03-14T02:41:22;98662.94;;;15.10;68.78
64739;BME280;51175;51.186;0.276;2023-03-14T02:41:52;98669.34;;;15.09;68.57
64739;BME280;51175;51.186;0.276;2023-03-14T02:42:22;98677.34;;;15.09;68.67
64739;BME280;51175;51.186;0.276;2023-03-14T02:42:52;98675.47;;;15.09;68.75
64739;BME280;51175;51.186;0.276;2023-03-14T02:43:22;98677.34;;;15.09;68.57
64739;BME280;51175;51.186;0.276;2023-03-14T02:43:53;98681.09;;;15.08;68.49
64739;BME280;51175;51.186;0.276;2023-03-14T02:44:23;98690.97;;;15.07;68.73
64739;BME280;51175;51.186;0.276;2023-03-14T02:44:54;98689.09;;;15.08;68.57
64739;BME280;51175;51.186;0.276;2023-03-14T02:45:55;98696.28;;;15.07;68.61
64739;BME280;51175;51.186;0.276;2023-03-14T02:46:25;98695.53;;;15.07;68.69
64739;BME280;51175;51.186;0.276;2023-03-14T02:46:55;98693.19;;;15.05;68.62
64739;BME280;51175;51.186;0.276;2023-03-14T02:47:27;98692.06;;;15.06;68.64
64739;BME280;51175;51.186;0.276;2023-03-14T02:48:00;98697.41;;;15.06;68.72
64739;BME280;51175;51.186;0.276;2023-03-14T02:48:35;98699.28;;;15.06;68.58
64739;BME280;51175;51.186;0.276;2023-03-14T02:49:10;98696.59;;;15.06;68.67
64739;BME280;51175;51.186;0.276;2023-03-14T02:49:41;98705.69;;;15.05;68.54
64739;BME280;51175;51.186;0.276;2023-03-14T02:50:13;98702.25;;;15.04;68.55
64739;BME280;51175;51.186;0.276;2023-03-14T02:50:45;98701.50;;;15.04;68.54
64739;BME280;51175;51.186;0.276;2023-03-14T02:51:16;98698.84;;;15.04;68.41
64739;BME280;51175;51.186;0.276;2023-03-14T02:51:47;98719.31;;;15.03;68.82
64739;BME280;51175;51.186;0.276;2023-03-14T02:52:17;98712.13;;;15.04;68.61
64739;BME280;51175;51.186;0.276;2023-03-14T02:52:47;98712.13;;;15.04;68.84
64739;BME280;51175;51.186;0.276;2023-03-14T02:53:19;98715.88;;;15.02;68.52